sensor_id;sensor_type;location;lat;lon;timestamp;P1;durP1;ratioP1;P2;durP2;ratioP2
16735;SDS011;17990;49.548;9.730;2024-01-10T00:01:13;21.03;;;8.07;;
16735;SDS011;17990;49.548;9.730;2024-01-10T00:03:40;18.00;;;8.00;;
16735;SDS011;17990;49.548;9.730;2024-01-10T00:06:06;18.03;;;8.33;;
16735;SDS011;17990;49.548;9.730;2024-01-10T00:08:33;17.93;;;8.07;;
16735;SDS011;17990;49.548;9.730;2024-01-10T00:11:01;20.43;;;8.97;;
16735;SDS011;17990;49.548;9.730;2024-01-10T00:13:29;15.93;;;7.50;;
16735;SDS011;17990;49.548;9.730;2024-01-10T00:15:57;18.00;;;8.13;;
16735;SDS011;17990;49.548;9.730;2024-01-10T00:18:24;17.57;;;7.30;;
16735;SDS011;17990;49.548;9.730;2024-01-10T00:20:51;18.40;;;7.83;;
16735;SDS011;17990;49.548;9.730;2024-01-10T00:23:19;19.57;;;8.03;;
16735;SDS011;17990;49.548;9.730;2024-01-10T00:25:45;18.73;;;7.43;;
16735;SDS011;17990;49.548;9.730;2024-01-10T00:28:13;19.30;;;8.00;;
16735;SDS011;17990;49.548;9.730;2024-01-10T00:30:41;18.77;;;8.30;;
16735;SDS011;17990;49.548;9.730;2024-01-10T00:33:08;17.60;;;8.43;;
16735;SDS011;17990;49.548;9.730;2024-01-10T00:35:35;23.43;;;8.97;;
16735;SDS011;17990;49.548;9.730;2024-01-10T00:38:02;21.77;;;8.27;;
16735;SDS011;17990;49.548;9.730;2024-01-10T00:40:29;19.83;;;8.40;;
16735;SDS011;17990;49.548;9.730;2024-01-10T00:42:55;15.37;;;7.43;;
16735;SDS011;17990;49.548;9.730;2024-01-10T00:45:23;17.40;;;8.10;;
16735;SDS011;17990;49.548;9.730;2024-01-10T00:47:50;19.13;;;8.57;;
16735;SDS011;17990;49.548;9.730;2024-01-10T00:50:17;18.83;;;8.33;;
16735;SDS011;17990;49.548;9.730;2024-01-10T00:52:44;18.63;;;8.07;;
16735;SDS011;17990;49.548;9.730;2024-01-10T00:55:11;16.87;;;7.93;;
16735;SDS011;17990;49.548;9.730;2024-01-10T00:57:38;20.10;;;8.43;;
16735;SDS011;17990;49.548;9.730;2024-01-10T01:00:05;20.23;;;8.53;;
16735;SDS011;17990;49.548;9.730;2024-01-10T01:02:34;19.30;;;7.77;;
16735;SDS011;17990;49.548;9.730;2024-01-10T01:05:01;19.73;;;8.43;;
16735;SDS011;17990;49.548;9.730;2024-01-10T01:07:28;21.63;;;9.20;;
16735;SDS011;17990;49.548;9.730;2024-01-10T01:09:55;19.53;;;7.73;;
16735;SDS011;17990;49.548;9.730;2024-01-10T01:12:21;18.83;;;8.37;;
16735;SDS011;17990;49.548;9.730;2024-01-10T01:14:48;21.03;;;8.77;;
16735;SDS011;17990;49.548;9.730;2024-01-10T01:17:15;18.40;;;8.10;;
16735;SDS011;17990;49.548;9.730;2024-01-10T01:19:43;19.57;;;8.47;;
16735;SDS011;17990;49.548;9.730;2024-01-10T01:22:10;22.30;;;9.57;;
16735;SDS011;17990;49.548;9.730;2024-01-10T01:24:36;21.20;;;8.20;;
16735;SDS011;17990;49.548;9.730;2024-01-10T01:27:03;18.47;;;8.10;;
16735;SDS011;17990;49.548;9.730;2024-01-10T01:29:30;19.90;;;8.67;;
16735;SDS011;17990;49.548;9.730;2024-01-10T01:31:56;17.73;;;8.07;;
16735;SDS011;17990;49.548;9.730;2024-01-10T01:34:23;20.67;;;8.83;;
16735;SDS011;17990;49.548;9.730;2024-01-10T01:36:51;18.23;;;8.67;;
16735;SDS011;17990;49.548;9.730;2024-01-10T01:39:18;19.90;;;8.00;;
16735;SDS011;17990;49.548;9.730;2024-01-10T01:41:45;17.90;;;8.30;;
16735;SDS011;17990;49.548;9.730;2024-01-10T01:44:12;19.67;;;8.03;;
16735;SDS011;17990;49.548;9.730;2024-01-10T01:46:39;19.50;;;8.97;;
16735;SDS011;17990;49.548;9.730;2024-01-10T01:49:06;18.10;;;8.97;;
16735;SDS011;17990;49.548;9.730;2024-01-10T01:51:32;21.30;;;9.53;;
16735;SDS011;17990;49.548;9.730;2024-01-10T01:54:03;18.50;;;8.20;;
16735;SDS011;17990;49.548;9.730;2024-01-10T01:56:32;19.77;;;8.67;;
16735;SDS011;17990;49.548;9.730;2024-01-10T01:58:59;15.20;;;7.37;;
16735;SDS011;17990;49.548;9.730;2024-01-10T02:01:26;20.90;;;8.90;;
16735;SDS011;17990;49.548;9.730;2024-01-10T02:03:53;20.30;;;8.40;;
16735;SDS011;17990;49.548;9.730;2024-01-10T02:06:21;22.97;;;9.23;;
16735;SDS011;17990;49.548;9.730;2024-01-10T02:08:47;17.40;;;7.37;;
16735;SDS011;17990;49.548;9.730;2024-01-10T02:11:15;17.77;;;8.57;;
16735;SDS011;17990;49.548;9.730;2024-01-10T02:13:42;17.47;;;8.47;;
16735;SDS011;17990;49.548;9.730;2024-01-10T02:16:09;22.20;;;8.73;;
16735;SDS011;17990;49.548;9.730;2024-01-10T02:18:37;19.50;;;8.10;;
16735;SDS011;17990;49.548;9.730;2024-01-10T02:21:04;19.20;;;8.70;;
16735;SDS011;17990;49.548;9.730;2024-01-10T02:23:31;17.50;;;8.20;;
16735;SDS011;17990;49.548;9.730;2024-01-10T02:25:59;18.77;;;8.20;;
16735;SDS011;17990;49.548;9.730;2024-01-10T02:28:26;23.83;;;8.33;;
16735;SDS011;17990;49.548;9.730;2024-01-10T02:30:52;20.93;;;8.50;;
16735;SDS011;17990;49.548;9.730;2024-01-10T02:33:20;19.13;;;8.83;;
16735;SDS011;17990;49.548;9.730;2024-01-10T02:35:47;20.70;;;8.63;;
16735;SDS011;17990;49.548;9.730;2024-01-10T02:38:15;21.87;;;9.20;;
16735;SDS011;17990;49.548;9.730;2024-01-10T02:40:42;20.03;;;8.17;;
16735;SDS011;17990;49.548;9.730;2024-01-10T02:43:10;23.53;;;8.13;;
16735;SDS011;17990;49.548;9.730;2024-01-10T02:45:37;21.30;;;8.83;;
16735;SDS011;17990;49.548;9.730;2024-01-10T02:48:04;19.60;;;8.33;;
16735;SDS011;17990;49.548;9.730;2024-01-10T02:50:31;18.40;;;8.80;;
16735;SDS011;17990;49.548;9.730;2024-01-10T02:52:58;17.93;;;7.57;;
16735;SDS011;17990;49.548;9.730;2024-01-10T02:55:25;20.73;;;9.20;;
16735;SDS011;17990;49.548;9.730;2024-01-10T02:57:52;18.00;;;8.13;;
16735;SDS011;17990;49.548;9.730;2024-01-10T03:00:20;20.23;;;8.77;;
16735;SDS011;17990;49.548;9.730;2024-01-10T03:02:46;21.20;;;8.90;;
16735;SDS011;17990;49.548;9.730;2024-01-10T03:05:13;18.83;;;7.70;;
16735;SDS011;17990;49.548;9.730;2024-01-10T03:07:40;22.17;;;9.17;;
16735;SDS011;17990;49.548;9.730;2024-01-10T03:10:07;17.53;;;8.77;;
16735;SDS011;17990;49.548;9.730;2024-01-10T03:12:34;23.80;;;9.00;;
16735;SDS011;17990;49.548;9.730;2024-01-10T03:15:03;19.83;;;9.20;;
16735;SDS011;17990;49.548;9.730;2024-01-10T03:17:31;14.87;;;8.27;;
16735;SDS011;17990;49.548;9.730;2024-01-10T03:19:58;23.47;;;8.90;;
16735;SDS011;17990;49.548;9.730;2024-01-10T03:22:25;22.70;;;8.00;;
16735;SDS011;17990;49.548;9.730;2024-01-10T03:24:52;16.80;;;8.17;;
16735;SDS011;17990;49.548;9.730;2024-01-10T03:27:19;18.93;;;8.40;;
16735;SDS011;17990;49.548;9.730;2024-01-10T03:29:45;22.03;;;9.30;;
16735;SDS011;17990;49.548;9.730;2024-01-10T03:32:12;15.90;;;8.53;;
16735;SDS011;17990;49.548;9.730;2024-01-10T03:34:42;19.93;;;9.70;;
16735;SDS011;17990;49.548;9.730;2024-01-10T03:37:08;18.57;;;8.43;;
16735;SDS011;17990;49.548;9.730;2024-01-10T03:39:35;20.83;;;8.43;;
16735;SDS011;17990;49.548;9.730;2024-01-10T03:42:02;18.50;;;8.60;;
16735;SDS011;17990;49.548;9.730;2024-01-10T03:44:29;16.63;;;8.53;;
16735;SDS011;17990;49.548;9.730;2024-01-10T03:46:56;21.60;;;8.47;;
16735;SDS011;17990;49.548;9.730;2024-01-10T03:49:23;15.10;;;7.53;;
16735;SDS011;17990;49.548;9.730;2024-01-10T03:51:51;18.77;;;8.83;;
16735;SDS011;17990;49.548;9.730;2024-01-10T03:54:17;20.50;;;8.97;;
16735;SDS011;17990;49.548;9.730;2024-01-10T03:56:44;22.13;;;9.17;;
16735;SDS011;17990;49.548;9.730;2024-01-10T03:59:11;19.40;;;8.60;;
16735;SDS011;17990;49.548;9.730;2024-01-10T04:01:37;21.33;;;9.07;;
16735;SDS011;17990;49.548;9.730;2024-01-10T04:04:05;22.00;;;9.70;;
16735;SDS011;17990;49.548;9.730;2024-01-10T04:06:31;20.27;;;9.70;;
16735;SDS011;17990;49.548;9.730;2024-01-10T04:09:01;22.40;;;9.50;;
16735;SDS011;17990;49.548;9.730;2024-01-10T04:11:27;25.53;;;9.50;;
16735;SDS011;17990;49.548;9.730;2024-01-10T04:13:54;20.47;;;10.07;;
16735;SDS011;17990;49.548;9.730;2024-01-10T04:16:21;22.97;;;9.83;;
16735;SDS011;17990;49.548;9.730;2024-01-10T04:18:48;20.77;;;9.90;;
16735;SDS011;17990;49.548;9.730;2024-01-10T04:21:15;22.93;;;10.27;;
16735;SDS011;17990;49.548;9.730;2024-01-10T04:23:41;22.40;;;9.77;;
16735;SDS011;17990;49.548;9.730;2024-01-10T04:26:09;21.33;;;8.87;;
16735;SDS011;17990;49.548;9.730;2024-01-10T04:28:36;21.80;;;8.97;;
16735;SDS011;17990;49.548;9.730;2024-01-10T04:31:05;20.93;;;8.73;;
16735;SDS011;17990;49.548;9.730;2024-01-10T04:33:31;24.40;;;10.67;;
16735;SDS011;17990;49.548;9.730;2024-01-10T04:35:58;26.27;;;12.40;;
16735;SDS011;17990;49.548;9.730;2024-01-10T04:38:25;26.93;;;11.30;;
16735;SDS011;17990;49.548;9.730;2024-01-10T04:40:52;23.67;;;11.13;;
16735;SDS011;17990;49.548;9.730;2024-01-10T04:43:20;24.80;;;9.87;;
16735;SDS011;17990;49.548;9.730;2024-01-10T04:45:47;18.97;;;8.73;;
16735;SDS011;17990;49.548;9.730;2024-01-10T04:48:13;22.07;;;9.30;;
16735;SDS011;17990;49.548;9.730;2024-01-10T04:50:40;20.40;;;9.30;;
16735;SDS011;17990;49.548;9.730;2024-01-10T04:53:07;23.80;;;10.47;;
16735;SDS011;17990;49.548;9.730;2024-01-10T04:55:34;17.93;;;8.73;;
16735;SDS011;17990;49.548;9.730;2024-01-10T04:58:00;17.77;;;9.27;;
16735;SDS011;17990;49.548;9.730;2024-01-10T05:00:29;24.17;;;9.60;;
16735;SDS011;17990;49.548;9.730;2024-01-10T05:02:56;19.80;;;9.37;;
16735;SDS011;17990;49.548;9.730;2024-01-10T05:05:22;20.53;;;9.40;;
16735;SDS011;17990;49.548;9.730;2024-01-10T05:07:49;27.60;;;10.90;;
16735;SDS011;17990;49.548;9.730;2024-01-10T05:10:16;19.90;;;9.23;;
16735;SDS011;17990;49.548;9.730;2024-01-10T05:12:43;22.17;;;9.90;;
16735;SDS011;17990;49.548;9.730;2024-01-10T05:15:10;22.17;;;9.50;;
16735;SDS011;17990;49.548;9.730;2024-01-10T05:17:38;25.67;;;9.30;;
16735;SDS011;17990;49.548;9.730;2024-01-10T05:20:05;19.93;;;9.37;;
16735;SDS011;17990;49.548;9.730;2024-01-10T05:22:33;20.40;;;8.73;;
16735;SDS011;17990;49.548;9.730;2024-01-10T05:25:00;20.93;;;8.50;;
16735;SDS011;17990;49.548;9.730;2024-01-10T05:27:27;19.30;;;8.87;;
16735;SDS011;17990;49.548;9.730;2024-01-10T05:29:54;17.60;;;8.43;;
16735;SDS011;17990;49.548;9.730;2024-01-10T05:32:20;21.90;;;9.27;;
16735;SDS011;17990;49.548;9.730;2024-01-10T05:34:49;22.00;;;8.87;;
16735;SDS011;17990;49.548;9.730;2024-01-10T05:37:15;19.53;;;9.13;;
16735;SDS011;17990;49.548;9.730;2024-01-10T05:39:42;21.77;;;8.80;;
16735;SDS011;17990;49.548;9.730;2024-01-10T05:42:09;24.20;;;9.03;;
16735;SDS011;17990;49.548;9.730;2024-01-10T05:44:36;24.10;;;9.20;;
16735;SDS011;17990;49.548;9.730;2024-01-10T05:47:02;18.03;;;8.47;;
16735;SDS011;17990;49.548;9.730;2024-01-10T05:49:29;20.17;;;9.10;;
16735;SDS011;17990;49.548;9.730;2024-01-10T05:51:59;19.13;;;9.13;;
16735;SDS011;17990;49.548;9.730;2024-01-10T05:54:26;22.33;;;9.60;;
16735;SDS011;17990;49.548;9.730;2024-01-10T05:56:53;18.10;;;8.00;;
16735;SDS011;17990;49.548;9.730;2024-01-10T05:59:20;17.57;;;8.23;;
16735;SDS011;17990;49.548;9.730;2024-01-10T06:01:47;20.80;;;8.80;;
16735;SDS011;17990;49.548;9.730;2024-01-10T06:04:13;18.30;;;8.63;;
16735;SDS011;17990;49.548;9.730;2024-01-10T06:06:40;21.33;;;9.33;;
16735;SDS011;17990;49.548;9.730;2024-01-10T06:09:08;19.83;;;9.03;;
16735;SDS011;17990;49.548;9.730;2024-01-10T06:11:40;21.80;;;8.83;;
16735;SDS011;17990;49.548;9.730;2024-01-10T06:14:07;19.03;;;8.50;;
16735;SDS011;17990;49.548;9.730;2024-01-10T06:16:34;23.97;;;8.97;;
16735;SDS011;17990;49.548;9.730;2024-01-10T06:19:01;23.53;;;9.23;;
16735;SDS011;17990;49.548;9.730;2024-01-10T06:21:28;19.43;;;7.73;;
16735;SDS011;17990;49.548;9.730;2024-01-10T06:23:54;25.23;;;8.93;;
16735;SDS011;17990;49.548;9.730;2024-01-10T06:26:23;17.90;;;8.40;;
16735;SDS011;17990;49.548;9.730;2024-01-10T06:28:49;19.67;;;8.70;;
16735;SDS011;17990;49.548;9.730;2024-01-10T06:31:16;20.47;;;8.50;;
16735;SDS011;17990;49.548;9.730;2024-01-10T06:33:43;19.27;;;8.03;;
16735;SDS011;17990;49.548;9.730;2024-01-10T06:36:09;26.27;;;11.80;;
16735;SDS011;17990;49.548;9.730;2024-01-10T06:38:37;19.13;;;8.30;;
16735;SDS011;17990;49.548;9.730;2024-01-10T06:41:07;17.77;;;8.30;;
16735;SDS011;17990;49.548;9.730;2024-01-10T06:43:36;21.87;;;10.47;;
16735;SDS011;17990;49.548;9.730;2024-01-10T06:46:03;19.80;;;8.83;;
16735;SDS011;17990;49.548;9.730;2024-01-10T06:48:30;18.43;;;7.80;;
16735;SDS011;17990;49.548;9.730;2024-01-10T06:50:57;14.73;;;7.70;;
16735;SDS011;17990;49.548;9.730;2024-01-10T06:53:25;18.87;;;8.93;;
16735;SDS011;17990;49.548;9.730;2024-01-10T06:55:51;24.07;;;9.23;;
16735;SDS011;17990;49.548;9.730;2024-01-10T06:58:18;18.50;;;8.63;;
16735;SDS011;17990;49.548;9.730;2024-01-10T07:00:46;15.93;;;7.47;;
16735;SDS011;17990;49.548;9.730;2024-01-10T07:03:15;19.50;;;8.43;;
16735;SDS011;17990;49.548;9.730;2024-01-10T07:05:43;17.57;;;8.27;;
16735;SDS011;17990;49.548;9.730;2024-01-10T07:08:10;20.30;;;9.23;;
16735;SDS011;17990;49.548;9.730;2024-01-10T07:10:37;20.57;;;10.33;;
16735;SDS011;17990;49.548;9.730;2024-01-10T07:13:03;19.83;;;9.23;;
16735;SDS011;17990;49.548;9.730;2024-01-10T07:15:30;18.00;;;8.37;;
16735;SDS011;17990;49.548;9.730;2024-01-10T07:17:59;19.57;;;8.80;;
16735;SDS011;17990;49.548;9.730;2024-01-10T07:20:26;18.20;;;8.07;;
16735;SDS011;17990;49.548;9.730;2024-01-10T07:22:52;23.40;;;8.20;;
16735;SDS011;17990;49.548;9.730;2024-01-10T07:25:19;19.00;;;9.13;;
16735;SDS011;17990;49.548;9.730;2024-01-10T07:27:50;20.23;;;7.77;;
16735;SDS011;17990;49.548;9.730;2024-01-10T07:30:17;22.20;;;8.70;;
16735;SDS011;17990;49.548;9.730;2024-01-10T07:32:44;21.17;;;8.10;;
16735;SDS011;17990;49.548;9.730;2024-01-10T07:35:13;21.07;;;9.40;;
16735;SDS011;17990;49.548;9.730;2024-01-10T07:37:40;21.83;;;9.77;;
16735;SDS011;17990;49.548;9.730;2024-01-10T07:40:07;29.37;;;12.57;;
16735;SDS011;17990;49.548;9.730;2024-01-10T07:42:35;29.30;;;13.43;;
16735;SDS011;17990;49.548;9.730;2024-01-10T07:45:04;29.90;;;13.57;;
16735;SDS011;17990;49.548;9.730;2024-01-10T07:47:33;36.17;;;13.70;;
16735;SDS011;17990;49.548;9.730;2024-01-10T07:50:02;35.10;;;14.97;;
16735;SDS011;17990;49.548;9.730;2024-01-10T07:52:31;27.63;;;11.97;;
16735;SDS011;17990;49.548;9.730;2024-01-10T07:54:59;39.77;;;14.33;;
16735;SDS011;17990;49.548;9.730;2024-01-10T07:57:26;28.87;;;12.93;;
16735;SDS011;17990;49.548;9.730;2024-01-10T07:59:53;26.73;;;12.50;;
16735;SDS011;17990;49.548;9.730;2024-01-10T08:02:20;29.47;;;12.73;;
16735;SDS011;17990;49.548;9.730;2024-01-10T08:04:47;28.90;;;12.33;;
16735;SDS011;17990;49.548;9.730;2024-01-10T08:07:13;26.77;;;11.43;;
16735;SDS011;17990;49.548;9.730;2024-01-10T08:09:41;24.20;;;10.10;;
16735;SDS011;17990;49.548;9.730;2024-01-10T08:12:08;20.73;;;9.33;;
16735;SDS011;17990;49.548;9.730;2024-01-10T08:14:36;21.97;;;9.13;;
16735;SDS011;17990;49.548;9.730;2024-01-10T08:17:03;17.47;;;8.70;;
16735;SDS011;17990;49.548;9.730;2024-01-10T08:19:31;18.20;;;8.87;;
16735;SDS011;17990;49.548;9.730;2024-01-10T08:21:58;20.23;;;9.23;;
16735;SDS011;17990;49.548;9.730;2024-01-10T08:24:25;18.00;;;8.67;;
16735;SDS011;17990;49.548;9.730;2024-01-10T08:26:53;19.27;;;8.53;;
16735;SDS011;17990;49.548;9.730;2024-01-10T08:29:19;19.97;;;8.70;;
16735;SDS011;17990;49.548;9.730;2024-01-10T08:31:47;20.50;;;8.90;;
16735;SDS011;17990;49.548;9.730;2024-01-10T08:34:14;19.77;;;8.67;;
16735;SDS011;17990;49.548;9.730;2024-01-10T08:36:40;18.70;;;8.83;;
16735;SDS011;17990;49.548;9.730;2024-01-10T08:39:07;23.13;;;8.37;;
16735;SDS011;17990;49.548;9.730;2024-01-10T08:41:36;20.17;;;8.67;;
16735;SDS011;17990;49.548;9.730;2024-01-10T08:44:09;22.20;;;8.97;;
16735;SDS011;17990;49.548;9.730;2024-01-10T08:46:36;18.47;;;8.53;;
16735;SDS011;17990;49.548;9.730;2024-01-10T08:49:03;23.30;;;8.80;;
16735;SDS011;17990;49.548;9.730;2024-01-10T08:51:30;18.63;;;8.23;;
16735;SDS011;17990;49.548;9.730;2024-01-10T08:53:57;18.23;;;7.63;;
16735;SDS011;17990;49.548;9.730;2024-01-10T08:56:23;15.87;;;7.47;;
16735;SDS011;17990;49.548;9.730;2024-01-10T08:58:51;16.73;;;8.40;;
16735;SDS011;17990;49.548;9.730;2024-01-10T09:01:19;21.17;;;9.33;;
16735;SDS011;17990;49.548;9.730;2024-01-10T09:03:46;24.73;;;11.87;;
16735;SDS011;17990;49.548;9.730;2024-01-10T09:06:13;27.00;;;11.10;;
16735;SDS011;17990;49.548;9.730;2024-01-10T09:08:42;28.53;;;11.27;;
16735;SDS011;17990;49.548;9.730;2024-01-10T09:11:08;25.20;;;11.03;;
16735;SDS011;17990;49.548;9.730;2024-01-10T09:13:36;23.97;;;11.07;;
16735;SDS011;17990;49.548;9.730;2024-01-10T09:16:05;26.93;;;10.73;;
16735;SDS011;17990;49.548;9.730;2024-01-10T09:18:33;21.67;;;11.47;;
16735;SDS011;17990;49.548;9.730;2024-01-10T09:21:00;24.70;;;11.30;;
16735;SDS011;17990;49.548;9.730;2024-01-10T09:23:27;19.53;;;8.97;;
16735;SDS011;17990;49.548;9.730;2024-01-10T09:25:54;30.77;;;13.07;;
16735;SDS011;17990;49.548;9.730;2024-01-10T09:28:21;30.77;;;13.93;;
16735;SDS011;17990;49.548;9.730;2024-01-10T09:30:48;26.17;;;11.83;;
16735;SDS011;17990;49.548;9.730;2024-01-10T09:33:16;27.30;;;12.27;;
16735;SDS011;17990;49.548;9.730;2024-01-10T09:35:44;20.70;;;10.57;;
16735;SDS011;17990;49.548;9.730;2024-01-10T09:38:11;27.57;;;9.80;;
16735;SDS011;17990;49.548;9.730;2024-01-10T09:40:39;21.87;;;9.93;;
16735;SDS011;17990;49.548;9.730;2024-01-10T09:43:05;19.37;;;8.63;;
16735;SDS011;17990;49.548;9.730;2024-01-10T09:45:33;18.83;;;9.27;;
16735;SDS011;17990;49.548;9.730;2024-01-10T09:48:02;19.70;;;8.33;;
16735;SDS011;17990;49.548;9.730;2024-01-10T09:50:30;19.50;;;8.60;;
16735;SDS011;17990;49.548;9.730;2024-01-10T09:53:02;16.37;;;8.43;;
16735;SDS011;17990;49.548;9.730;2024-01-10T09:55:33;21.43;;;8.13;;
16735;SDS011;17990;49.548;9.730;2024-01-10T09:58:01;25.27;;;9.57;;
16735;SDS011;17990;49.548;9.730;2024-01-10T10:00:29;19.00;;;8.83;;
16735;SDS011;17990;49.548;9.730;2024-01-10T10:02:56;19.30;;;9.00;;
16735;SDS011;17990;49.548;9.730;2024-01-10T10:05:25;19.53;;;8.70;;
16735;SDS011;17990;49.548;9.730;2024-01-10T10:07:52;19.50;;;8.77;;
16735;SDS011;17990;49.548;9.730;2024-01-10T10:10:21;20.10;;;9.00;;
16735;SDS011;17990;49.548;9.730;2024-01-10T10:12:48;18.03;;;8.73;;
16735;SDS011;17990;49.548;9.730;2024-01-10T10:15:16;18.23;;;8.93;;
16735;SDS011;17990;49.548;9.730;2024-01-10T10:17:44;18.20;;;8.57;;
16735;SDS011;17990;49.548;9.730;2024-01-10T10:20:19;16.30;;;8.00;;
16735;SDS011;17990;49.548;9.730;2024-01-10T10:23:00;19.43;;;9.00;;
16735;SDS011;17990;49.548;9.730;2024-01-10T10:25:30;16.60;;;8.33;;
16735;SDS011;17990;49.548;9.730;2024-01-10T10:27:57;19.53;;;8.30;;
16735;SDS011;17990;49.548;9.730;2024-01-10T10:30:25;26.97;;;9.60;;
16735;SDS011;17990;49.548;9.730;2024-01-10T10:32:51;21.87;;;10.20;;
16735;SDS011;17990;49.548;9.730;2024-01-10T10:35:19;19.80;;;9.07;;
16735;SDS011;17990;49.548;9.730;2024-01-10T10:37:48;21.20;;;8.73;;
16735;SDS011;17990;49.548;9.730;2024-01-10T10:40:15;17.70;;;9.70;;
16735;SDS011;17990;49.548;9.730;2024-01-10T10:42:45;21.20;;;11.33;;
16735;SDS011;17990;49.548;9.730;2024-01-10T10:45:14;23.13;;;11.20;;
16735;SDS011;17990;49.548;9.730;2024-01-10T10:47:42;18.43;;;10.20;;
16735;SDS011;17990;49.548;9.730;2024-01-10T10:50:11;20.30;;;10.80;;
16735;SDS011;17990;49.548;9.730;2024-01-10T10:52:41;31.17;;;11.97;;
16735;SDS011;17990;49.548;9.730;2024-01-10T10:55:13;20.37;;;9.30;;
16735;SDS011;17990;49.548;9.730;2024-01-10T10:57:41;29.60;;;12.80;;
16735;SDS011;17990;49.548;9.730;2024-01-10T11:00:12;18.20;;;9.70;;
16735;SDS011;17990;49.548;9.730;2024-01-10T11:02:41;23.37;;;10.00;;
16735;SDS011;17990;49.548;9.730;2024-01-10T11:05:08;19.57;;;9.73;;
16735;SDS011;17990;49.548;9.730;2024-01-10T11:07:35;23.10;;;11.27;;
16735;SDS011;17990;49.548;9.730;2024-01-10T11:10:02;24.80;;;10.50;;
16735;SDS011;17990;49.548;9.730;2024-01-10T11:12:40;21.23;;;10.10;;
16735;SDS011;17990;49.548;9.730;2024-01-10T11:15:21;18.63;;;9.23;;
16735;SDS011;17990;49.548;9.730;2024-01-10T11:18:09;17.97;;;9.40;;
16735;SDS011;17990;49.548;9.730;2024-01-10T11:21:02;19.00;;;9.07;;
16735;SDS011;17990;49.548;9.730;2024-01-10T11:23:41;21.00;;;10.40;;
16735;SDS011;17990;49.548;9.730;2024-01-10T11:26:10;25.53;;;11.10;;
16735;SDS011;17990;49.548;9.730;2024-01-10T11:28:39;20.27;;;9.77;;
16735;SDS011;17990;49.548;9.730;2024-01-10T11:31:07;18.33;;;9.80;;
16735;SDS011;17990;49.548;9.730;2024-01-10T11:33:34;23.00;;;10.90;;
16735;SDS011;17990;49.548;9.730;2024-01-10T11:36:14;30.83;;;12.27;;
16735;SDS011;17990;49.548;9.730;2024-01-10T11:38:42;20.40;;;9.80;;
16735;SDS011;17990;49.548;9.730;2024-01-10T11:41:10;18.07;;;9.60;;
16735;SDS011;17990;49.548;9.730;2024-01-10T11:43:39;20.53;;;10.83;;
16735;SDS011;17990;49.548;9.730;2024-01-10T11:46:06;18.90;;;9.53;;
16735;SDS011;17990;49.548;9.730;2024-01-10T11:48:33;21.63;;;10.53;;
16735;SDS011;17990;49.548;9.730;2024-01-10T11:51:00;21.87;;;10.30;;
16735;SDS011;17990;49.548;9.730;2024-01-10T11:53:39;19.77;;;10.10;;
16735;SDS011;17990;49.548;9.730;2024-01-10T11:56:10;18.40;;;9.77;;
16735;SDS011;17990;49.548;9.730;2024-01-10T12:01:30;21.33;;;10.63;;
16735;SDS011;17990;49.548;9.730;2024-01-10T12:03:59;21.37;;;10.13;;
16735;SDS011;17990;49.548;9.730;2024-01-10T12:06:26;20.67;;;10.17;;
16735;SDS011;17990;49.548;9.730;2024-01-10T12:08:53;22.60;;;10.73;;
16735;SDS011;17990;49.548;9.730;2024-01-10T12:11:20;20.57;;;10.43;;
16735;SDS011;17990;49.548;9.730;2024-01-10T12:13:47;23.37;;;10.70;;
16735;SDS011;17990;49.548;9.730;2024-01-10T12:16:14;23.10;;;9.87;;
16735;SDS011;17990;49.548;9.730;2024-01-10T12:18:42;21.40;;;9.93;;
16735;SDS011;17990;49.548;9.730;2024-01-10T12:21:09;19.47;;;10.47;;
16735;SDS011;17990;49.548;9.730;2024-01-10T12:23:37;25.53;;;12.33;;
16735;SDS011;17990;49.548;9.730;2024-01-10T12:26:05;24.67;;;11.63;;
16735;SDS011;17990;49.548;9.730;2024-01-10T12:28:34;23.47;;;11.87;;
16735;SDS011;17990;49.548;9.730;2024-01-10T12:31:01;35.77;;;16.73;;
16735;SDS011;17990;49.548;9.730;2024-01-10T12:33:29;32.23;;;14.03;;
16735;SDS011;17990;49.548;9.730;2024-01-10T12:36:06;27.10;;;12.33;;
16735;SDS011;17990;49.548;9.730;2024-01-10T12:38:34;19.00;;;10.43;;
16735;SDS011;17990;49.548;9.730;2024-01-10T12:41:01;19.83;;;10.50;;
16735;SDS011;17990;49.548;9.730;2024-01-10T12:43:29;20.20;;;10.40;;
16735;SDS011;17990;49.548;9.730;2024-01-10T12:46:02;20.47;;;9.93;;
16735;SDS011;17990;49.548;9.730;2024-01-10T12:48:29;18.90;;;10.63;;
16735;SDS011;17990;49.548;9.730;2024-01-10T12:50:58;18.67;;;10.57;;
16735;SDS011;17990;49.548;9.730;2024-01-10T12:53:27;20.97;;;10.20;;
16735;SDS011;17990;49.548;9.730;2024-01-10T12:55:54;22.00;;;10.97;;
16735;SDS011;17990;49.548;9.730;2024-01-10T12:58:21;21.23;;;10.63;;
16735;SDS011;17990;49.548;9.730;2024-01-10T13:00:48;23.97;;;12.60;;
16735;SDS011;17990;49.548;9.730;2024-01-10T13:03:15;21.70;;;10.30;;
16735;SDS011;17990;49.548;9.730;2024-01-10T13:05:42;20.90;;;11.27;;
16735;SDS011;17990;49.548;9.730;2024-01-10T13:08:09;19.07;;;10.13;;
16735;SDS011;17990;49.548;9.730;2024-01-10T13:10:38;19.77;;;9.90;;
16735;SDS011;17990;49.548;9.730;2024-01-10T13:13:05;21.20;;;10.47;;
16735;SDS011;17990;49.548;9.730;2024-01-10T13:15:31;22.13;;;10.90;;
16735;SDS011;17990;49.548;9.730;2024-01-10T13:17:58;16.43;;;9.30;;
16735;SDS011;17990;49.548;9.730;2024-01-10T13:20:25;20.43;;;10.67;;
16735;SDS011;17990;49.548;9.730;2024-01-10T13:22:52;19.63;;;10.73;;
16735;SDS011;17990;49.548;9.730;2024-01-10T13:25:19;18.23;;;9.80;;
16735;SDS011;17990;49.548;9.730;2024-01-10T13:27:49;17.90;;;9.67;;
16735;SDS011;17990;49.548;9.730;2024-01-10T13:30:17;20.30;;;9.87;;
16735;SDS011;17990;49.548;9.730;2024-01-10T13:32:43;18.53;;;9.73;;
16735;SDS011;17990;49.548;9.730;2024-01-10T13:35:09;19.80;;;10.10;;
16735;SDS011;17990;49.548;9.730;2024-01-10T13:37:36;19.57;;;10.20;;
16735;SDS011;17990;49.548;9.730;2024-01-10T13:40:03;19.10;;;10.40;;
16735;SDS011;17990;49.548;9.730;2024-01-10T13:42:32;20.77;;;10.07;;
16735;SDS011;17990;49.548;9.730;2024-01-10T13:45:00;24.67;;;10.83;;
16735;SDS011;17990;49.548;9.730;2024-01-10T13:47:27;17.33;;;9.47;;
16735;SDS011;17990;49.548;9.730;2024-01-10T13:49:53;20.93;;;10.10;;
16735;SDS011;17990;49.548;9.730;2024-01-10T13:52:20;26.17;;;10.27;;
16735;SDS011;17990;49.548;9.730;2024-01-10T13:54:47;17.77;;;10.00;;
16735;SDS011;17990;49.548;9.730;2024-01-10T13:57:14;18.90;;;9.70;;
16735;SDS011;17990;49.548;9.730;2024-01-10T13:59:40;21.73;;;10.60;;
16735;SDS011;17990;49.548;9.730;2024-01-10T14:02:09;23.37;;;10.70;;
16735;SDS011;17990;49.548;9.730;2024-01-10T14:04:36;21.10;;;10.83;;
16735;SDS011;17990;49.548;9.730;2024-01-10T14:07:03;20.57;;;11.00;;
16735;SDS011;17990;49.548;9.730;2024-01-10T14:09:30;25.60;;;10.97;;
16735;SDS011;17990;49.548;9.730;2024-01-10T14:11:57;22.73;;;11.70;;
16735;SDS011;17990;49.548;9.730;2024-01-10T14:14:24;21.50;;;11.40;;
16735;SDS011;17990;49.548;9.730;2024-01-10T14:16:50;18.80;;;10.43;;
16735;SDS011;17990;49.548;9.730;2024-01-10T14:19:19;25.60;;;11.53;;
16735;SDS011;17990;49.548;9.730;2024-01-10T14:21:45;24.17;;;11.17;;
16735;SDS011;17990;49.548;9.730;2024-01-10T14:24:12;20.23;;;10.43;;
16735;SDS011;17990;49.548;9.730;2024-01-10T14:26:39;23.27;;;10.67;;
16735;SDS011;17990;49.548;9.730;2024-01-10T14:29:05;23.37;;;12.27;;
16735;SDS011;17990;49.548;9.730;2024-01-10T14:31:32;22.53;;;11.13;;
16735;SDS011;17990;49.548;9.730;2024-01-10T14:33:59;24.77;;;12.83;;
16735;SDS011;17990;49.548;9.730;2024-01-10T14:36:27;21.43;;;10.90;;